Liphook, United Kingdom
Current Conditions -  °F | °C
As of 9:50 AM on Wednesday 22 Oct 2014 (Local Time) from EGVO Reporting Station
Clear Clear  
Wind Chill: 43°   Ceiling: Unl
Heat Index: 48°   Visibility: 6mi
Dew Point: 39°   Wind: 14mph
Humidity: 71%   Direction: 270°W
Pressure: 30.3"   Gusts: NA
Location:  51.08°N, 0.8°W
Report Text: EGVO 220850Z 27012KT CAVOK 09/04 Q1026 BLU NOSIG
Loading
Personal Weather Stations






























Interactive Weather Map
Tropical Storm Tracking
New forecast layout! Learn more

10-Day Weather Forecast

Advertisements
Track Severe Weather on mobile